sensor_id;sensor_type;location;lat;lon;timestamp;P1;durP1;ratioP1;P2;durP2;ratioP2
25936;SDS011;13733;51.178;4.450;2023-04-06T00:02:08;28.40;;;17.02;;
25936;SDS011;13733;51.178;4.450;2023-04-06T00:04:33;26.15;;;16.85;;
25936;SDS011;13733;51.178;4.450;2023-04-06T00:07:00;25.17;;;16.75;;
25936;SDS011;13733;51.178;4.450;2023-04-06T00:09:26;27.15;;;17.17;;
25936;SDS011;13733;51.178;4.450;2023-04-06T00:11:51;28.33;;;16.35;;
25936;SDS011;13733;51.178;4.450;2023-04-06T00:14:17;30.15;;;16.13;;
25936;SDS011;13733;51.178;4.450;2023-04-06T00:16:43;30.45;;;16.13;;
25936;SDS011;13733;51.178;4.450;2023-04-06T00:19:09;28.80;;;15.63;;
25936;SDS011;13733;51.178;4.450;2023-04-06T00:21:35;30.65;;;17.13;;
25936;SDS011;13733;51.178;4.450;2023-04-06T00:24:01;26.75;;;16.58;;
25936;SDS011;13733;51.178;4.450;2023-04-06T00:26:28;27.88;;;16.00;;
25936;SDS011;13733;51.178;4.450;2023-04-06T00:28:55;27.50;;;16.05;;
25936;SDS011;13733;51.178;4.450;2023-04-06T00:31:21;25.90;;;15.85;;
25936;SDS011;13733;51.178;4.450;2023-04-06T00:33:47;30.27;;;15.73;;
25936;SDS011;13733;51.178;4.450;2023-04-06T00:36:14;25.60;;;15.90;;
25936;SDS011;13733;51.178;4.450;2023-04-06T00:38:40;25.13;;;15.45;;
25936;SDS011;13733;51.178;4.450;2023-04-06T00:41:05;25.17;;;15.90;;
25936;SDS011;13733;51.178;4.450;2023-04-06T00:43:31;26.17;;;14.75;;
25936;SDS011;13733;51.178;4.450;2023-04-06T00:45:57;25.33;;;15.52;;
25936;SDS011;13733;51.178;4.450;2023-04-06T00:48:23;28.85;;;15.35;;
25936;SDS011;13733;51.178;4.450;2023-04-06T00:50:49;22.75;;;14.25;;
25936;SDS011;13733;51.178;4.450;2023-04-06T00:53:15;28.67;;;15.32;;
25936;SDS011;13733;51.178;4.450;2023-04-06T00:55:41;26.27;;;15.70;;
25936;SDS011;13733;51.178;4.450;2023-04-06T00:58:07;26.90;;;15.43;;
25936;SDS011;13733;51.178;4.450;2023-04-06T01:00:42;26.98;;;15.68;;
25936;SDS011;13733;51.178;4.450;2023-04-06T01:03:14;29.58;;;14.98;;
25936;SDS011;13733;51.178;4.450;2023-04-06T01:05:42;22.13;;;13.93;;
25936;SDS011;13733;51.178;4.450;2023-04-06T01:08:17;25.70;;;16.00;;
25936;SDS011;13733;51.178;4.450;2023-04-06T01:10:43;25.92;;;15.55;;
25936;SDS011;13733;51.178;4.450;2023-04-06T01:13:20;26.45;;;15.48;;
25936;SDS011;13733;51.178;4.450;2023-04-06T01:16:07;24.70;;;15.38;;
25936;SDS011;13733;51.178;4.450;2023-04-06T01:18:58;24.25;;;14.88;;
25936;SDS011;13733;51.178;4.450;2023-04-06T01:21:28;27.30;;;15.15;;
25936;SDS011;13733;51.178;4.450;2023-04-06T01:24:10;24.48;;;14.75;;
25936;SDS011;13733;51.178;4.450;2023-04-06T01:27:02;26.42;;;14.55;;
25936;SDS011;13733;51.178;4.450;2023-04-06T01:29:37;30.38;;;14.38;;
25936;SDS011;13733;51.178;4.450;2023-04-06T01:32:07;25.88;;;13.85;;
25936;SDS011;13733;51.178;4.450;2023-04-06T01:34:39;20.33;;;13.35;;
25936;SDS011;13733;51.178;4.450;2023-04-06T01:37:05;25.13;;;14.95;;
25936;SDS011;13733;51.178;4.450;2023-04-06T01:39:31;22.83;;;14.00;;
25936;SDS011;13733;51.178;4.450;2023-04-06T01:42:00;21.48;;;13.57;;
25936;SDS011;13733;51.178;4.450;2023-04-06T01:44:26;23.40;;;13.93;;
25936;SDS011;13733;51.178;4.450;2023-04-06T01:47:03;26.05;;;14.65;;
25936;SDS011;13733;51.178;4.450;2023-04-06T01:49:29;24.33;;;14.38;;
25936;SDS011;13733;51.178;4.450;2023-04-06T01:51:55;27.42;;;14.35;;
25936;SDS011;13733;51.178;4.450;2023-04-06T01:54:21;23.85;;;14.65;;
25936;SDS011;13733;51.178;4.450;2023-04-06T01:56:57;24.38;;;14.75;;
25936;SDS011;13733;51.178;4.450;2023-04-06T01:59:45;23.92;;;13.55;;
25936;SDS011;13733;51.178;4.450;2023-04-06T02:02:34;22.17;;;13.98;;
25936;SDS011;13733;51.178;4.450;2023-04-06T02:07:30;21.23;;;13.32;;
25936;SDS011;13733;51.178;4.450;2023-04-06T02:09:56;23.40;;;14.18;;
25936;SDS011;13733;51.178;4.450;2023-04-06T02:12:30;20.75;;;13.18;;
25936;SDS011;13733;51.178;4.450;2023-04-06T02:14:56;24.40;;;13.10;;
25936;SDS011;13733;51.178;4.450;2023-04-06T02:17:22;25.25;;;14.00;;
25936;SDS011;13733;51.178;4.450;2023-04-06T02:19:48;23.13;;;14.02;;
25936;SDS011;13733;51.178;4.450;2023-04-06T02:22:14;21.45;;;13.63;;
25936;SDS011;13733;51.178;4.450;2023-04-06T02:24:40;22.17;;;13.65;;
25936;SDS011;13733;51.178;4.450;2023-04-06T02:27:06;23.00;;;13.52;;
25936;SDS011;13733;51.178;4.450;2023-04-06T02:29:31;24.38;;;14.80;;
25936;SDS011;13733;51.178;4.450;2023-04-06T02:31:57;22.30;;;13.32;;
25936;SDS011;13733;51.178;4.450;2023-04-06T02:34:23;24.10;;;14.43;;
25936;SDS011;13733;51.178;4.450;2023-04-06T02:36:50;21.75;;;13.90;;
25936;SDS011;13733;51.178;4.450;2023-04-06T02:39:16;24.48;;;13.90;;
25936;SDS011;13733;51.178;4.450;2023-04-06T02:41:42;23.67;;;13.90;;
25936;SDS011;13733;51.178;4.450;2023-04-06T02:44:10;25.10;;;14.15;;
25936;SDS011;13733;51.178;4.450;2023-04-06T02:46:39;22.70;;;13.63;;
25936;SDS011;13733;51.178;4.450;2023-04-06T02:49:05;26.05;;;15.07;;
25936;SDS011;13733;51.178;4.450;2023-04-06T02:51:33;24.05;;;14.13;;
25936;SDS011;13733;51.178;4.450;2023-04-06T02:54:11;23.20;;;14.10;;
25936;SDS011;13733;51.178;4.450;2023-04-06T02:56:37;29.48;;;14.13;;
25936;SDS011;13733;51.178;4.450;2023-04-06T02:59:03;23.80;;;13.65;;
25936;SDS011;13733;51.178;4.450;2023-04-06T03:01:31;22.52;;;13.55;;
25936;SDS011;13733;51.178;4.450;2023-04-06T03:04:01;23.23;;;14.70;;
25936;SDS011;13733;51.178;4.450;2023-04-06T03:06:28;24.95;;;14.30;;
25936;SDS011;13733;51.178;4.450;2023-04-06T03:08:59;21.38;;;13.50;;
25936;SDS011;13733;51.178;4.450;2023-04-06T03:11:25;23.05;;;13.50;;
25936;SDS011;13733;51.178;4.450;2023-04-06T03:13:52;21.98;;;13.65;;
25936;SDS011;13733;51.178;4.450;2023-04-06T03:16:17;25.77;;;14.18;;
25936;SDS011;13733;51.178;4.450;2023-04-06T03:18:43;22.02;;;13.55;;
25936;SDS011;13733;51.178;4.450;2023-04-06T03:21:13;26.67;;;13.93;;
25936;SDS011;13733;51.178;4.450;2023-04-06T03:23:46;21.98;;;13.48;;
25936;SDS011;13733;51.178;4.450;2023-04-06T03:26:15;22.67;;;13.10;;
25936;SDS011;13733;51.178;4.450;2023-04-06T03:28:40;21.98;;;13.35;;
25936;SDS011;13733;51.178;4.450;2023-04-06T03:31:06;24.73;;;13.95;;
25936;SDS011;13733;51.178;4.450;2023-04-06T03:33:45;22.75;;;13.40;;
25936;SDS011;13733;51.178;4.450;2023-04-06T03:36:20;23.27;;;12.90;;
25936;SDS011;13733;51.178;4.450;2023-04-06T03:38:46;20.95;;;12.20;;
25936;SDS011;13733;51.178;4.450;2023-04-06T03:41:13;21.70;;;13.63;;
25936;SDS011;13733;51.178;4.450;2023-04-06T03:43:44;24.20;;;13.85;;
25936;SDS011;13733;51.178;4.450;2023-04-06T03:46:10;23.27;;;14.25;;
25936;SDS011;13733;51.178;4.450;2023-04-06T03:48:36;23.60;;;13.63;;
25936;SDS011;13733;51.178;4.450;2023-04-06T03:51:04;24.75;;;14.25;;
25936;SDS011;13733;51.178;4.450;2023-04-06T03:53:30;25.10;;;14.98;;
25936;SDS011;13733;51.178;4.450;2023-04-06T03:55:56;22.40;;;13.65;;
25936;SDS011;13733;51.178;4.450;2023-04-06T03:58:22;19.95;;;13.18;;
25936;SDS011;13733;51.178;4.450;2023-04-06T04:00:47;21.38;;;13.38;;
25936;SDS011;13733;51.178;4.450;2023-04-06T04:03:13;24.17;;;13.95;;
25936;SDS011;13733;51.178;4.450;2023-04-06T04:05:41;23.10;;;13.95;;
25936;SDS011;13733;51.178;4.450;2023-04-06T04:08:08;22.20;;;13.48;;
25936;SDS011;13733;51.178;4.450;2023-04-06T04:10:34;21.52;;;13.32;;
25936;SDS011;13733;51.178;4.450;2023-04-06T04:12:59;25.75;;;13.98;;
25936;SDS011;13733;51.178;4.450;2023-04-06T04:15:25;22.00;;;13.48;;
25936;SDS011;13733;51.178;4.450;2023-04-06T04:17:51;22.42;;;13.60;;
25936;SDS011;13733;51.178;4.450;2023-04-06T04:20:17;25.65;;;13.15;;
25936;SDS011;13733;51.178;4.450;2023-04-06T04:22:43;25.67;;;13.02;;
25936;SDS011;13733;51.178;4.450;2023-04-06T04:25:09;21.85;;;13.52;;
25936;SDS011;13733;51.178;4.450;2023-04-06T04:27:41;23.30;;;14.43;;
25936;SDS011;13733;51.178;4.450;2023-04-06T04:30:07;24.10;;;13.23;;
25936;SDS011;13733;51.178;4.450;2023-04-06T04:32:33;24.27;;;13.30;;
25936;SDS011;13733;51.178;4.450;2023-04-06T04:35:01;22.33;;;13.05;;
25936;SDS011;13733;51.178;4.450;2023-04-06T04:37:36;20.65;;;13.57;;
25936;SDS011;13733;51.178;4.450;2023-04-06T04:40:03;25.17;;;13.13;;
25936;SDS011;13733;51.178;4.450;2023-04-06T04:42:35;26.08;;;14.63;;
25936;SDS011;13733;51.178;4.450;2023-04-06T04:45:03;25.20;;;13.73;;
25936;SDS011;13733;51.178;4.450;2023-04-06T04:47:36;25.92;;;13.68;;
25936;SDS011;13733;51.178;4.450;2023-04-06T04:50:04;21.67;;;13.00;;
25936;SDS011;13733;51.178;4.450;2023-04-06T04:52:30;20.50;;;13.55;;
25936;SDS011;13733;51.178;4.450;2023-04-06T04:55:08;25.58;;;13.77;;
25936;SDS011;13733;51.178;4.450;2023-04-06T04:57:34;20.80;;;13.70;;
25936;SDS011;13733;51.178;4.450;2023-04-06T05:00:02;25.90;;;14.02;;
25936;SDS011;13733;51.178;4.450;2023-04-06T05:02:29;24.17;;;13.70;;
25936;SDS011;13733;51.178;4.450;2023-04-06T05:05:18;23.75;;;13.30;;
25936;SDS011;13733;51.178;4.450;2023-04-06T05:07:44;24.15;;;14.48;;
25936;SDS011;13733;51.178;4.450;2023-04-06T05:10:19;22.27;;;13.73;;
25936;SDS011;13733;51.178;4.450;2023-04-06T05:12:52;27.20;;;13.98;;
25936;SDS011;13733;51.178;4.450;2023-04-06T05:15:17;25.42;;;14.07;;
25936;SDS011;13733;51.178;4.450;2023-04-06T05:17:43;26.25;;;13.73;;
25936;SDS011;13733;51.178;4.450;2023-04-06T05:22:46;21.80;;;14.02;;
25936;SDS011;13733;51.178;4.450;2023-04-06T05:25:12;23.98;;;14.45;;
25936;SDS011;13733;51.178;4.450;2023-04-06T05:27:40;23.08;;;14.00;;
25936;SDS011;13733;51.178;4.450;2023-04-06T05:30:17;21.90;;;13.88;;
25936;SDS011;13733;51.178;4.450;2023-04-06T05:32:45;27.98;;;15.02;;
25936;SDS011;13733;51.178;4.450;2023-04-06T05:35:11;29.52;;;15.07;;
25936;SDS011;13733;51.178;4.450;2023-04-06T05:37:39;28.00;;;15.15;;
25936;SDS011;13733;51.178;4.450;2023-04-06T05:40:06;30.13;;;14.88;;
25936;SDS011;13733;51.178;4.450;2023-04-06T05:42:41;22.35;;;14.98;;
25936;SDS011;13733;51.178;4.450;2023-04-06T05:45:09;27.60;;;15.80;;
25936;SDS011;13733;51.178;4.450;2023-04-06T05:47:37;29.40;;;16.50;;
25936;SDS011;13733;51.178;4.450;2023-04-06T05:50:17;25.67;;;15.85;;
25936;SDS011;13733;51.178;4.450;2023-04-06T05:52:43;35.35;;;17.10;;
25936;SDS011;13733;51.178;4.450;2023-04-06T05:55:13;29.43;;;15.97;;
25936;SDS011;13733;51.178;4.450;2023-04-06T05:57:43;29.35;;;16.65;;
25936;SDS011;13733;51.178;4.450;2023-04-06T06:00:10;32.13;;;17.83;;
25936;SDS011;13733;51.178;4.450;2023-04-06T06:02:48;31.27;;;17.40;;
25936;SDS011;13733;51.178;4.450;2023-04-06T06:05:18;26.50;;;16.38;;
25936;SDS011;13733;51.178;4.450;2023-04-06T06:07:46;33.28;;;17.55;;
25936;SDS011;13733;51.178;4.450;2023-04-06T06:10:12;26.63;;;17.70;;
25936;SDS011;13733;51.178;4.450;2023-04-06T06:12:38;26.23;;;17.25;;
25936;SDS011;13733;51.178;4.450;2023-04-06T06:15:05;29.15;;;17.55;;
25936;SDS011;13733;51.178;4.450;2023-04-06T06:17:36;26.88;;;17.42;;
25936;SDS011;13733;51.178;4.450;2023-04-06T06:20:02;27.13;;;17.75;;
25936;SDS011;13733;51.178;4.450;2023-04-06T06:22:28;30.85;;;18.05;;
25936;SDS011;13733;51.178;4.450;2023-04-06T06:24:54;30.60;;;19.17;;
25936;SDS011;13733;51.178;4.450;2023-04-06T06:27:22;28.48;;;17.83;;
25936;SDS011;13733;51.178;4.450;2023-04-06T06:29:48;30.13;;;18.58;;
25936;SDS011;13733;51.178;4.450;2023-04-06T06:32:14;31.85;;;19.35;;
25936;SDS011;13733;51.178;4.450;2023-04-06T06:34:41;32.72;;;19.67;;
25936;SDS011;13733;51.178;4.450;2023-04-06T06:37:08;27.73;;;19.15;;
25936;SDS011;13733;51.178;4.450;2023-04-06T06:39:36;36.00;;;20.58;;
25936;SDS011;13733;51.178;4.450;2023-04-06T06:42:02;31.25;;;20.33;;
25936;SDS011;13733;51.178;4.450;2023-04-06T06:44:50;31.73;;;20.05;;
25936;SDS011;13733;51.178;4.450;2023-04-06T06:47:16;36.33;;;21.20;;
25936;SDS011;13733;51.178;4.450;2023-04-06T06:49:43;30.83;;;20.45;;
25936;SDS011;13733;51.178;4.450;2023-04-06T06:52:09;31.73;;;21.00;;
25936;SDS011;13733;51.178;4.450;2023-04-06T06:54:34;35.45;;;21.77;;
25936;SDS011;13733;51.178;4.450;2023-04-06T06:57:00;32.67;;;21.10;;
25936;SDS011;13733;51.178;4.450;2023-04-06T06:59:26;31.42;;;20.92;;
25936;SDS011;13733;51.178;4.450;2023-04-06T07:01:52;28.92;;;20.45;;
25936;SDS011;13733;51.178;4.450;2023-04-06T07:04:18;28.98;;;20.15;;
25936;SDS011;13733;51.178;4.450;2023-04-06T07:06:44;29.65;;;19.83;;
25936;SDS011;13733;51.178;4.450;2023-04-06T07:09:10;29.63;;;19.98;;
25936;SDS011;13733;51.178;4.450;2023-04-06T07:11:36;30.25;;;20.27;;
25936;SDS011;13733;51.178;4.450;2023-04-06T07:14:02;31.23;;;20.08;;
25936;SDS011;13733;51.178;4.450;2023-04-06T07:16:28;32.22;;;21.20;;
25936;SDS011;13733;51.178;4.450;2023-04-06T07:18:54;29.40;;;20.95;;
25936;SDS011;13733;51.178;4.450;2023-04-06T07:21:21;33.25;;;21.05;;
25936;SDS011;13733;51.178;4.450;2023-04-06T07:23:47;31.48;;;20.58;;
25936;SDS011;13733;51.178;4.450;2023-04-06T07:26:13;34.22;;;21.25;;
25936;SDS011;13733;51.178;4.450;2023-04-06T07:28:39;27.67;;;20.45;;
25936;SDS011;13733;51.178;4.450;2023-04-06T07:31:07;29.08;;;19.15;;
25936;SDS011;13733;51.178;4.450;2023-04-06T07:33:33;28.75;;;20.83;;
25936;SDS011;13733;51.178;4.450;2023-04-06T07:35:59;28.70;;;18.80;;
25936;SDS011;13733;51.178;4.450;2023-04-06T07:38:25;33.55;;;20.02;;
25936;SDS011;13733;51.178;4.450;2023-04-06T07:40:51;29.00;;;18.45;;
25936;SDS011;13733;51.178;4.450;2023-04-06T07:43:17;25.63;;;17.30;;
25936;SDS011;13733;51.178;4.450;2023-04-06T07:45:43;29.27;;;16.65;;
25936;SDS011;13733;51.178;4.450;2023-04-06T07:48:10;58.80;;;19.48;;
25936;SDS011;13733;51.178;4.450;2023-04-06T07:50:36;27.08;;;16.17;;
25936;SDS011;13733;51.178;4.450;2023-04-06T07:53:03;23.40;;;16.38;;
25936;SDS011;13733;51.178;4.450;2023-04-06T07:55:29;24.00;;;15.43;;
25936;SDS011;13733;51.178;4.450;2023-04-06T07:57:55;25.75;;;14.82;;
25936;SDS011;13733;51.178;4.450;2023-04-06T08:00:21;23.88;;;15.68;;
25936;SDS011;13733;51.178;4.450;2023-04-06T08:02:47;23.63;;;15.65;;
25936;SDS011;13733;51.178;4.450;2023-04-06T08:05:13;23.33;;;16.23;;
25936;SDS011;13733;51.178;4.450;2023-04-06T08:07:39;25.83;;;14.48;;
25936;SDS011;13733;51.178;4.450;2023-04-06T08:10:06;19.98;;;14.45;;
25936;SDS011;13733;51.178;4.450;2023-04-06T08:12:32;22.23;;;14.82;;
25936;SDS011;13733;51.178;4.450;2023-04-06T08:14:58;21.58;;;12.77;;
25936;SDS011;13733;51.178;4.450;2023-04-06T08:17:25;18.50;;;12.32;;
25936;SDS011;13733;51.178;4.450;2023-04-06T08:19:52;18.20;;;12.93;;
25936;SDS011;13733;51.178;4.450;2023-04-06T08:22:18;17.10;;;12.27;;
25936;SDS011;13733;51.178;4.450;2023-04-06T08:24:44;18.60;;;12.95;;
25936;SDS011;13733;51.178;4.450;2023-04-06T08:27:09;16.75;;;11.80;;
25936;SDS011;13733;51.178;4.450;2023-04-06T08:29:35;21.77;;;11.25;;
25936;SDS011;13733;51.178;4.450;2023-04-06T08:32:01;17.02;;;12.30;;
25936;SDS011;13733;51.178;4.450;2023-04-06T08:34:30;19.75;;;12.82;;
25936;SDS011;13733;51.178;4.450;2023-04-06T08:36:57;17.20;;;11.45;;
25936;SDS011;13733;51.178;4.450;2023-04-06T08:39:22;17.33;;;11.70;;
25936;SDS011;13733;51.178;4.450;2023-04-06T08:41:51;27.92;;;12.55;;
25936;SDS011;13733;51.178;4.450;2023-04-06T08:44:18;16.63;;;11.27;;
25936;SDS011;13733;51.178;4.450;2023-04-06T08:46:43;20.35;;;11.70;;
25936;SDS011;13733;51.178;4.450;2023-04-06T08:49:10;14.52;;;10.15;;
25936;SDS011;13733;51.178;4.450;2023-04-06T08:51:37;15.68;;;10.70;;
25936;SDS011;13733;51.178;4.450;2023-04-06T08:54:04;16.58;;;10.10;;
25936;SDS011;13733;51.178;4.450;2023-04-06T08:56:30;14.43;;;10.50;;
25936;SDS011;13733;51.178;4.450;2023-04-06T08:58:56;13.35;;;9.25;;
25936;SDS011;13733;51.178;4.450;2023-04-06T09:01:24;12.63;;;8.70;;
25936;SDS011;13733;51.178;4.450;2023-04-06T09:03:54;13.25;;;7.65;;
25936;SDS011;13733;51.178;4.450;2023-04-06T09:06:22;10.63;;;7.13;;
25936;SDS011;13733;51.178;4.450;2023-04-06T09:08:48;15.40;;;8.48;;
25936;SDS011;13733;51.178;4.450;2023-04-06T09:11:14;11.50;;;7.10;;
25936;SDS011;13733;51.178;4.450;2023-04-06T09:16:13;10.75;;;6.90;;
25936;SDS011;13733;51.178;4.450;2023-04-06T09:18:39;11.25;;;6.97;;
25936;SDS011;13733;51.178;4.450;2023-04-06T09:21:05;10.38;;;7.05;;
25936;SDS011;13733;51.178;4.450;2023-04-06T09:23:32;10.98;;;6.60;;
25936;SDS011;13733;51.178;4.450;2023-04-06T09:31:12;10.35;;;6.63;;
25936;SDS011;13733;51.178;4.450;2023-04-06T09:33:44;12.40;;;6.68;;
25936;SDS011;13733;51.178;4.450;2023-04-06T09:36:11;11.40;;;7.38;;
25936;SDS011;13733;51.178;4.450;2023-04-06T09:38:39;11.50;;;6.90;;
25936;SDS011;13733;51.178;4.450;2023-04-06T09:41:22;13.50;;;7.60;;
25936;SDS011;13733;51.178;4.450;2023-04-06T09:43:49;13.57;;;7.15;;
25936;SDS011;13733;51.178;4.450;2023-04-06T09:46:16;12.95;;;7.47;;
25936;SDS011;13733;51.178;4.450;2023-04-06T09:48:43;10.82;;;7.30;;
25936;SDS011;13733;51.178;4.450;2023-04-06T09:51:09;14.45;;;7.57;;
25936;SDS011;13733;51.178;4.450;2023-04-06T09:53:39;11.65;;;8.02;;
25936;SDS011;13733;51.178;4.450;2023-04-06T09:56:11;13.18;;;8.23;;
25936;SDS011;13733;51.178;4.450;2023-04-06T09:58:42;11.65;;;7.72;;
25936;SDS011;13733;51.178;4.450;2023-04-06T10:01:12;11.93;;;8.10;;
25936;SDS011;13733;51.178;4.450;2023-04-06T10:03:48;11.02;;;8.50;;
25936;SDS011;13733;51.178;4.450;2023-04-06T10:06:26;14.68;;;9.25;;
25936;SDS011;13733;51.178;4.450;2023-04-06T10:08:54;12.80;;;9.40;;
25936;SDS011;13733;51.178;4.450;2023-04-06T10:11:21;14.85;;;9.20;;
25936;SDS011;13733;51.178;4.450;2023-04-06T10:13:47;12.75;;;9.27;;
25936;SDS011;13733;51.178;4.450;2023-04-06T10:16:16;15.52;;;9.85;;
25936;SDS011;13733;51.178;4.450;2023-04-06T10:18:44;14.70;;;9.50;;
25936;SDS011;13733;51.178;4.450;2023-04-06T10:21:16;12.13;;;8.52;;
25936;SDS011;13733;51.178;4.450;2023-04-06T10:23:49;11.27;;;9.05;;
25936;SDS011;13733;51.178;4.450;2023-04-06T10:26:24;16.08;;;9.68;;
25936;SDS011;13733;51.178;4.450;2023-04-06T10:28:50;15.63;;;9.63;;
25936;SDS011;13733;51.178;4.450;2023-04-06T10:31:23;15.63;;;10.07;;
25936;SDS011;13733;51.178;4.450;2023-04-06T10:34:00;13.40;;;9.25;;
25936;SDS011;13733;51.178;4.450;2023-04-06T10:36:33;14.70;;;9.52;;
25936;SDS011;13733;51.178;4.450;2023-04-06T10:39:00;15.05;;;9.48;;
25936;SDS011;13733;51.178;4.450;2023-04-06T10:41:31;15.60;;;10.00;;
25936;SDS011;13733;51.178;4.450;2023-04-06T10:44:05;14.63;;;9.57;;
25936;SDS011;13733;51.178;4.450;2023-04-06T10:46:32;14.80;;;9.27;;
25936;SDS011;13733;51.178;4.450;2023-04-06T10:49:08;13.23;;;9.75;;
25936;SDS011;13733;51.178;4.450;2023-04-06T10:51:37;13.10;;;9.55;;
25936;SDS011;13733;51.178;4.450;2023-04-06T10:54:03;14.38;;;9.95;;
25936;SDS011;13733;51.178;4.450;2023-04-06T10:56:31;13.70;;;9.55;;
25936;SDS011;13733;51.178;4.450;2023-04-06T10:59:01;13.00;;;9.80;;
25936;SDS011;13733;51.178;4.450;2023-04-06T11:01:27;11.52;;;9.35;;
25936;SDS011;13733;51.178;4.450;2023-04-06T11:03:55;12.35;;;8.98;;
25936;SDS011;13733;51.178;4.450;2023-04-06T11:06:30;14.45;;;9.48;;
25936;SDS011;13733;51.178;4.450;2023-04-06T11:08:57;14.38;;;9.57;;
25936;SDS011;13733;51.178;4.450;2023-04-06T11:11:24;13.98;;;10.27;;
25936;SDS011;13733;51.178;4.450;2023-04-06T11:13:52;14.88;;;10.05;;
25936;SDS011;13733;51.178;4.450;2023-04-06T11:16:21;14.80;;;9.80;;
25936;SDS011;13733;51.178;4.450;2023-04-06T11:18:53;12.82;;;9.65;;
25936;SDS011;13733;51.178;4.450;2023-04-06T11:21:42;16.40;;;10.13;;
25936;SDS011;13733;51.178;4.450;2023-04-06T11:24:20;12.88;;;9.95;;
25936;SDS011;13733;51.178;4.450;2023-04-06T11:29:19;13.27;;;10.10;;
25936;SDS011;13733;51.178;4.450;2023-04-06T11:31:51;14.55;;;10.65;;
25936;SDS011;13733;51.178;4.450;2023-04-06T11:34:25;14.93;;;11.10;;
25936;SDS011;13733;51.178;4.450;2023-04-06T11:37:00;13.95;;;10.20;;
25936;SDS011;13733;51.178;4.450;2023-04-06T11:39:28;12.73;;;10.35;;
25936;SDS011;13733;51.178;4.450;2023-04-06T11:41:57;13.45;;;10.90;;
25936;SDS011;13733;51.178;4.450;2023-04-06T11:46:58;17.75;;;10.50;;
25936;SDS011;13733;51.178;4.450;2023-04-06T11:49:29;19.08;;;10.85;;
25936;SDS011;13733;51.178;4.450;2023-04-06T11:51:56;17.10;;;11.38;;
25936;SDS011;13733;51.178;4.450;2023-04-06T11:54:37;15.85;;;12.07;;
25936;SDS011;13733;51.178;4.450;2023-04-06T11:57:04;19.75;;;11.98;;
25936;SDS011;13733;51.178;4.450;2023-04-06T11:59:31;15.98;;;11.43;;
25936;SDS011;13733;51.178;4.450;2023-04-06T12:01:57;16.27;;;11.55;;
25936;SDS011;13733;51.178;4.450;2023-04-06T12:04:23;15.50;;;11.27;;
25936;SDS011;13733;51.178;4.450;2023-04-06T12:06:49;14.93;;;12.00;;
25936;SDS011;13733;51.178;4.450;2023-04-06T12:09:16;15.30;;;12.10;;
25936;SDS011;13733;51.178;4.450;2023-04-06T12:11:45;15.48;;;11.40;;
25936;SDS011;13733;51.178;4.450;2023-04-06T12:14:11;16.92;;;11.65;;
25936;SDS011;13733;51.178;4.450;2023-04-06T12:16:38;18.42;;;11.82;;
25936;SDS011;13733;51.178;4.450;2023-04-06T12:19:04;14.85;;;11.55;;
25936;SDS011;13733;51.178;4.450;2023-04-06T12:21:30;16.33;;;11.57;;
25936;SDS011;13733;51.178;4.450;2023-04-06T12:23:57;15.68;;;12.02;;
25936;SDS011;13733;51.178;4.450;2023-04-06T12:26:23;18.63;;;12.07;;
25936;SDS011;13733;51.178;4.450;2023-04-06T12:28:50;15.52;;;10.93;;
25936;SDS011;13733;51.178;4.450;2023-04-06T12:31:17;17.80;;;11.60;;
25936;SDS011;13733;51.178;4.450;2023-04-06T12:33:48;15.30;;;10.90;;
25936;SDS011;13733;51.178;4.450;2023-04-06T12:36:18;12.77;;;10.35;;
25936;SDS011;13733;51.178;4.450;2023-04-06T12:38:46;15.50;;;10.85;;
25936;SDS011;13733;51.178;4.450;2023-04-06T12:41:13;13.70;;;10.98;;
25936;SDS011;13733;51.178;4.450;2023-04-06T12:43:39;14.65;;;11.85;;
25936;SDS011;13733;51.178;4.450;2023-04-06T12:46:06;15.02;;;11.18;;
25936;SDS011;13733;51.178;4.450;2023-04-06T12:48:32;14.13;;;10.43;;
25936;SDS011;13733;51.178;4.450;2023-04-06T12:50:58;13.05;;;10.65;;
25936;SDS011;13733;51.178;4.450;2023-04-06T12:53:25;13.50;;;11.05;;
25936;SDS011;13733;51.178;4.450;2023-04-06T12:55:52;13.15;;;10.38;;
25936;SDS011;13733;51.178;4.450;2023-04-06T12:58:19;12.93;;;9.90;;
25936;SDS011;13733;51.178;4.450;2023-04-06T13:00:46;14.80;;;10.63;;
25936;SDS011;13733;51.178;4.450;2023-04-06T13:03:18;14.43;;;10.73;;
25936;SDS011;13733;51.178;4.450;2023-04-06T13:05:44;13.95;;;9.80;;
25936;SDS011;13733;51.178;4.450;2023-04-06T13:08:14;13.00;;;10.25;;
25936;SDS011;13733;51.178;4.450;2023-04-06T13:10:46;11.98;;;9.25;;
25936;SDS011;13733;51.178;4.450;2023-04-06T13:13:16;16.20;;;10.43;;
25936;SDS011;13733;51.178;4.450;2023-04-06T13:15:43;12.50;;;9.57;;
25936;SDS011;13733;51.178;4.450;2023-04-06T13:18:10;16.20;;;9.98;;
25936;SDS011;13733;51.178;4.450;2023-04-06T13:20:36;15.18;;;10.10;;
25936;SDS011;13733;51.178;4.450;2023-04-06T13:23:02;10.80;;;9.52;;
25936;SDS011;13733;51.178;4.450;2023-04-06T13:25:28;12.30;;;9.93;;
25936;SDS011;13733;51.178;4.450;2023-04-06T13:27:55;13.27;;;9.65;;
25936;SDS011;13733;51.178;4.450;2023-04-06T13:30:21;12.90;;;9.95;;
25936;SDS011;13733;51.178;4.450;2023-04-06T13:32:47;16.88;;;9.60;;
25936;SDS011;13733;51.178;4.450;2023-04-06T13:35:13;14.43;;;10.60;;
25936;SDS011;13733;51.178;4.450;2023-04-06T13:37:38;12.27;;;9.50;;
25936;SDS011;13733;51.178;4.450;2023-04-06T13:40:05;10.68;;;9.57;;
25936;SDS011;13733;51.178;4.450;2023-04-06T13:42:31;11.10;;;9.88;;
25936;SDS011;13733;51.178;4.450;2023-04-06T13:44:57;13.13;;;10.10;;
25936;SDS011;13733;51.178;4.450;2023-04-06T13:47:24;11.10;;;9.13;;
25936;SDS011;13733;51.178;4.450;2023-04-06T13:49:50;11.73;;;9.60;;
25936;SDS011;13733;51.178;4.450;2023-04-06T13:52:20;15.35;;;10.63;;
25936;SDS011;13733;51.178;4.450;2023-04-06T13:54:46;11.32;;;9.63;;
25936;SDS011;13733;51.178;4.450;2023-04-06T13:57:12;13.18;;;10.43;;
25936;SDS011;13733;51.178;4.450;2023-04-06T13:59:38;12.05;;;10.05;;
25936;SDS011;13733;51.178;4.450;2023-04-06T14:02:05;14.48;;;11.43;;
25936;SDS011;13733;51.178;4.450;2023-04-06T14:04:32;12.82;;;11.07;;
25936;SDS011;13733;51.178;4.450;2023-04-06T14:06:59;13.68;;;10.70;;
25936;SDS011;13733;51.178;4.450;2023-04-06T14:09:25;14.50;;;10.90;;
25936;SDS011;13733;51.178;4.450;2023-04-06T14:11:52;15.27;;;11.80;;
25936;SDS011;13733;51.178;4.450;2023-04-06T14:14:17;15.10;;;11.82;;
25936;SDS011;13733;51.178;4.450;2023-04-06T14:16:43;13.75;;;11.48;;
25936;SDS011;13733;51.178;4.450;2023-04-06T14:19:12;13.82;;;11.50;;
25936;SDS011;13733;51.178;4.450;2023-04-06T14:21:41;17.80;;;12.55;;
25936;SDS011;13733;51.178;4.450;2023-04-06T14:24:08;16.40;;;12.80;;
25936;SDS011;13733;51.178;4.450;2023-04-06T14:26:34;18.33;;;12.73;;
25936;SDS011;13733;51.178;4.450;2023-04-06T14:29:01;16.38;;;12.57;;
25936;SDS011;13733;51.178;4.450;2023-04-06T14:31:29;16.65;;;12.23;;
25936;SDS011;13733;51.178;4.450;2023-04-06T14:33:55;16.75;;;12.73;;
25936;SDS011;13733;51.178;4.450;2023-04-06T14:36:21;17.05;;;12.70;;
25936;SDS011;13733;51.178;4.450;2023-04-06T14:38:47;15.65;;;12.30;;
25936;SDS011;13733;51.178;4.450;2023-04-06T14:41:16;14.05;;;12.00;;
25936;SDS011;13733;51.178;4.450;2023-04-06T14:43:43;15.52;;;12.55;;
25936;SDS011;13733;51.178;4.450;2023-04-06T14:46:10;15.10;;;12.27;;
25936;SDS011;13733;51.178;4.450;2023-04-06T14:48:35;15.07;;;12.13;;